createdAt,value
2023-02-07T00:00:30.062Z,2.08
2023-02-07T00:01:29.025Z,1.95
2023-02-07T00:02:28.841Z,2.01
2023-02-07T00:03:28.919Z,2.03
2023-02-07T00:04:28.819Z,2.23
2023-02-07T00:05:28.705Z,2.07
2023-02-07T00:06:28.830Z,2.14
2023-02-07T00:07:28.598Z,1.89
2023-02-07T00:08:29.669Z,1.89
2023-02-07T00:09:28.497Z,1.86
2023-02-07T00:10:29.481Z,1.85
2023-02-07T00:11:28.399Z,1.86
2023-02-07T00:12:29.591Z,1.84
2023-02-07T00:13:28.307Z,1.86
2023-02-07T00:14:28.249Z,1.76
2023-02-07T00:15:28.211Z,1.67
2023-02-07T00:16:29.361Z,1.61
2023-02-07T00:17:28.096Z,1.61
2023-02-07T00:18:28.314Z,1.67
2023-02-07T00:19:28.000Z,1.71
2023-02-07T00:20:27.953Z,1.60
2023-02-07T00:21:27.896Z,1.58
2023-02-07T00:22:28.950Z,1.46
2023-02-07T00:23:27.798Z,1.58
2023-02-07T00:24:28.140Z,1.50
2023-02-07T00:25:27.695Z,1.48
2023-02-07T00:26:27.665Z,1.49
2023-02-07T00:27:27.762Z,1.43
2023-02-07T00:28:27.657Z,1.48
2023-02-07T00:29:29.618Z,1.48
2023-02-07T00:30:27.527Z,1.38
2023-02-07T00:31:27.524Z,1.25
2023-02-07T00:32:27.349Z,1.32
2023-02-07T00:33:48.381Z,1.32
2023-02-07T00:34:27.251Z,1.39
2023-02-07T00:35:27.302Z,1.49
2023-02-07T00:36:28.392Z,1.50
2023-02-07T00:37:27.091Z,1.42
2023-02-07T00:38:27.050Z,1.38
2023-02-07T00:39:27.134Z,1.31
2023-02-07T00:40:26.940Z,1.34
2023-02-07T00:41:27.148Z,1.25
2023-02-07T00:42:26.898Z,1.40
2023-02-07T00:43:29.966Z,1.31
2023-02-07T00:44:26.982Z,1.45
2023-02-07T00:45:26.684Z,1.39
2023-02-07T00:46:26.825Z,1.32
2023-02-07T00:47:26.593Z,1.21
2023-02-07T00:48:26.790Z,1.34
2023-02-07T00:49:26.488Z,1.39
2023-02-07T00:50:26.599Z,1.25
2023-02-07T00:51:26.390Z,1.38
2023-02-07T00:52:27.433Z,1.27
2023-02-07T00:53:26.289Z,1.27
2023-02-07T00:54:26.277Z,1.16
2023-02-07T00:55:26.187Z,1.10
2023-02-07T00:56:27.174Z,1.10
2023-02-07T00:57:26.082Z,1.25
2023-02-07T00:58:26.248Z,1.20
2023-02-07T00:59:25.988Z,1.18
2023-02-07T01:00:26.101Z,1.22
2023-02-07T01:01:25.891Z,1.32
2023-02-07T01:02:26.075Z,1.22
2023-02-07T01:03:25.791Z,1.24
2023-02-07T01:04:26.936Z,1.18
2023-02-07T01:05:25.697Z,1.24
2023-02-07T01:06:25.681Z,1.20
2023-02-07T01:07:25.715Z,1.14
2023-02-07T01:08:25.601Z,1.21
2023-02-07T01:09:25.739Z,1.10
2023-02-07T01:10:25.442Z,1.07
2023-02-07T01:11:25.395Z,1.18
2023-02-07T01:12:25.396Z,1.09
2023-02-07T01:13:25.344Z,1.12
2023-02-07T01:14:25.233Z,1.14
2023-02-07T01:15:25.353Z,1.09
2023-02-07T01:16:25.152Z,1.07
2023-02-07T01:17:25.100Z,1.03
2023-02-07T01:18:25.371Z,1.10
2023-02-07T01:19:24.989Z,1.03
2023-02-07T01:20:25.183Z,1.10
2023-02-07T01:21:24.889Z,1.06
2023-02-07T01:22:25.265Z,1.09
2023-02-07T01:23:24.784Z,1.09
2023-02-07T01:24:25.006Z,1.07
2023-02-07T01:25:24.715Z,1.06
2023-02-07T01:26:26.864Z,1.03
2023-02-07T01:27:24.580Z,1.09
2023-02-07T01:28:24.634Z,1.00
2023-02-07T01:29:24.483Z,1.03
2023-02-07T01:30:25.881Z,1.06
2023-02-07T01:31:24.526Z,1.13
2023-02-07T01:32:24.452Z,1.06
2023-02-07T01:33:24.278Z,1.16
2023-02-07T01:34:24.234Z,1.14
2023-02-07T01:35:24.242Z,1.10
2023-02-07T01:36:24.288Z,1.12
2023-02-07T01:37:24.076Z,1.06
2023-02-07T01:38:24.088Z,1.07
2023-02-07T01:39:23.968Z,1.04
2023-02-07T01:40:23.923Z,1.06
2023-02-07T01:41:25.131Z,1.14
2023-02-07T01:42:24.990Z,1.10
2023-02-07T01:43:23.920Z,1.18
2023-02-07T01:44:23.719Z,1.16
2023-02-07T01:45:23.932Z,1.22
2023-02-07T01:46:23.664Z,1.13
2023-02-07T01:47:23.739Z,1.06
2023-02-07T01:48:23.651Z,1.13
2023-02-07T01:49:44.642Z,1.13
2023-02-07T01:50:24.635Z,1.22
2023-02-07T01:51:23.371Z,1.25
2023-02-07T01:52:23.576Z,1.25
2023-02-07T01:53:23.260Z,1.25
2023-02-07T01:54:23.389Z,1.27
2023-02-07T01:55:23.186Z,1.30
2023-02-07T01:56:31.564Z,1.31
2023-02-07T01:57:23.195Z,1.22
2023-02-07T01:58:23.008Z,1.25
2023-02-07T01:59:23.208Z,1.31
2023-02-07T02:00:22.910Z,1.39
2023-02-07T02:01:23.041Z,1.48
2023-02-07T02:02:22.987Z,1.36
2023-02-07T02:03:22.763Z,1.32
2023-02-07T02:04:22.838Z,1.39
2023-02-07T02:05:22.661Z,1.46
2023-02-07T02:06:22.861Z,1.63
2023-02-07T02:07:22.557Z,1.61
2023-02-07T02:08:22.763Z,1.67
2023-02-07T02:09:22.453Z,1.46
2023-02-07T02:10:22.678Z,1.50
2023-02-07T02:11:22.360Z,1.50
2023-02-07T02:12:23.524Z,1.66
2023-02-07T02:13:22.260Z,1.64
2023-02-07T02:14:22.246Z,1.58
2023-02-07T02:15:22.163Z,1.52
2023-02-07T02:16:23.173Z,1.43
2023-02-07T02:17:22.064Z,1.45
2023-02-07T02:18:22.121Z,1.66
2023-02-07T02:19:21.990Z,1.52
2023-02-07T02:20:22.189Z,1.58
2023-02-07T02:21:22.148Z,1.58
2023-02-07T02:22:21.803Z,1.66
2023-02-07T02:23:21.959Z,1.70
2023-02-07T02:24:21.712Z,1.61
2023-02-07T02:25:21.767Z,1.61
2023-02-07T02:26:21.639Z,1.52
2023-02-07T02:27:21.577Z,1.50
2023-02-07T02:28:21.613Z,1.52
2023-02-07T02:29:22.614Z,1.46
2023-02-07T02:30:21.462Z,1.31
2023-02-07T02:31:21.632Z,1.27
2023-02-07T02:32:21.463Z,1.24
2023-02-07T02:33:21.412Z,1.28
2023-02-07T02:34:21.212Z,1.25
2023-02-07T02:35:22.454Z,1.39
2023-02-07T02:36:21.102Z,1.31
2023-02-07T02:37:21.084Z,1.18
2023-02-07T02:38:21.011Z,1.21
2023-02-07T02:39:21.255Z,1.39
2023-02-07T02:40:20.907Z,1.18
2023-02-07T02:41:21.064Z,1.22
2023-02-07T02:42:20.801Z,1.30
2023-02-07T02:43:20.931Z,1.25
2023-02-07T02:44:20.725Z,1.25
2023-02-07T02:45:20.887Z,1.31
2023-02-07T02:46:20.620Z,1.24
2023-02-07T02:47:20.696Z,1.20
2023-02-07T02:48:20.505Z,1.06
2023-02-07T02:49:20.456Z,1.04
2023-02-07T02:50:20.717Z,1.13
2023-02-07T02:51:20.358Z,1.12
2023-02-07T02:52:20.548Z,1.07
2023-02-07T02:53:20.256Z,1.16
2023-02-07T02:54:21.370Z,1.09
2023-02-07T02:55:20.151Z,1.07
2023-02-07T02:56:21.386Z,1.10
2023-02-07T02:57:25.355Z,1.04
2023-02-07T02:58:21.199Z,0.95
2023-02-07T02:59:19.981Z,0.92
2023-02-07T03:00:19.913Z,0.91
2023-02-07T03:01:21.290Z,0.89
2023-02-07T03:02:19.994Z,0.91
2023-02-07T03:03:19.756Z,0.85
2023-02-07T03:04:20.014Z,0.99
2023-02-07T03:05:19.706Z,0.92
2023-02-07T03:06:19.601Z,0.92
2023-02-07T03:07:20.045Z,0.89
2023-02-07T03:08:19.509Z,0.96
2023-02-07T03:09:19.635Z,0.94
2023-02-07T03:10:19.441Z,0.86
2023-02-07T03:11:19.653Z,0.88
2023-02-07T03:12:19.294Z,0.73
2023-02-07T03:13:19.457Z,0.81
2023-02-07T03:14:19.202Z,0.81
2023-02-07T03:15:19.271Z,0.70
2023-02-07T03:16:19.370Z,0.73
2023-02-07T03:17:19.051Z,0.76
2023-02-07T03:18:19.012Z,0.76
2023-02-07T03:19:19.198Z,0.84
2023-02-07T03:20:18.901Z,0.85
2023-02-07T03:21:19.022Z,0.84
2023-02-07T03:22:18.796Z,0.78
2023-02-07T03:23:18.746Z,0.81
2023-02-07T03:24:18.693Z,0.88
2023-02-07T03:25:19.034Z,0.81
2023-02-07T03:26:18.586Z,0.73
2023-02-07T03:27:18.849Z,0.76
2023-02-07T03:28:18.503Z,0.85
2023-02-07T03:29:18.448Z,0.77
2023-02-07T03:30:18.662Z,0.68
2023-02-07T03:31:18.361Z,0.73
2023-02-07T03:32:18.568Z,0.77
2023-02-07T03:33:18.231Z,0.73
2023-02-07T03:34:18.395Z,0.78
2023-02-07T03:35:18.239Z,0.70
2023-02-07T03:36:18.392Z,0.70
2023-02-07T03:37:18.048Z,0.67
2023-02-07T03:38:20.258Z,0.59
2023-02-07T03:39:17.932Z,0.66
2023-02-07T03:40:17.880Z,0.71
2023-02-07T03:41:17.845Z,0.74
2023-02-07T03:42:20.079Z,0.77
2023-02-07T03:43:17.734Z,0.76
2023-02-07T03:44:17.845Z,0.67
2023-02-07T03:45:17.628Z,0.68
2023-02-07T03:46:17.712Z,0.51
2023-02-07T03:47:17.527Z,0.59
2023-02-07T03:48:17.661Z,0.55
2023-02-07T03:49:17.424Z,0.56
2023-02-07T03:50:17.675Z,0.51
2023-02-07T03:51:17.326Z,0.51
2023-02-07T03:52:17.303Z,0.56
2023-02-07T03:53:17.495Z,0.61
2023-02-07T03:54:17.347Z,0.55
2023-02-07T03:55:18.328Z,0.74
2023-02-07T03:56:17.089Z,0.64
2023-02-07T03:57:17.040Z,0.70
2023-02-07T03:58:17.039Z,0.71
2023-02-07T03:59:17.138Z,0.76
2023-02-07T04:00:16.881Z,0.70
2023-02-07T04:01:16.967Z,0.66
2023-02-07T04:02:17.037Z,0.64
2023-02-07T04:03:16.739Z,0.64
2023-02-07T04:04:16.664Z,0.58
2023-02-07T04:05:40.230Z,0.59
2023-02-07T04:06:16.573Z,0.71
2023-02-07T04:07:16.783Z,0.56
2023-02-07T04:08:16.476Z,0.52
2023-02-07T04:09:17.670Z,0.55
2023-02-07T04:10:17.416Z,0.52
2023-02-07T04:11:16.317Z,0.47
2023-02-07T04:12:16.418Z,0.55
2023-02-07T04:13:16.214Z,0.55
2023-02-07T04:14:17.347Z,0.58
2023-02-07T04:15:16.154Z,0.70
2023-02-07T04:16:16.144Z,0.64
2023-02-07T04:17:16.011Z,0.67
2023-02-07T04:18:17.172Z,0.74
2023-02-07T04:19:15.916Z,0.64
2023-02-07T04:20:15.867Z,0.58
2023-02-07T04:21:16.016Z,0.67
2023-02-07T04:22:15.968Z,0.70
2023-02-07T04:23:15.707Z,0.61
2023-02-07T04:24:15.779Z,0.55
2023-02-07T04:25:15.606Z,0.59
2023-02-07T04:26:15.555Z,0.49
2023-02-07T04:27:15.606Z,0.51
2023-02-07T04:28:15.519Z,0.66
2023-02-07T04:29:15.611Z,0.45
2023-02-07T04:30:15.438Z,0.51
2023-02-07T04:31:17.533Z,0.52
2023-02-07T04:32:15.253Z,0.59
2023-02-07T04:33:18.509Z,0.56
2023-02-07T04:34:15.150Z,0.52
2023-02-07T04:35:15.146Z,0.49
2023-02-07T04:36:15.060Z,0.51
2023-02-07T04:37:15.053Z,0.52
2023-02-07T04:38:14.954Z,0.59
2023-02-07T04:39:15.080Z,0.52
2023-02-07T04:40:14.842Z,0.66
2023-02-07T04:41:15.911Z,0.48
2023-02-07T04:42:14.746Z,0.42
2023-02-07T04:43:14.694Z,0.49
2023-02-07T04:44:14.642Z,0.48
2023-02-07T04:45:14.802Z,0.52
2023-02-07T04:46:14.570Z,0.39
2023-02-07T04:47:15.532Z,0.45
2023-02-07T04:48:14.448Z,0.47
2023-02-07T04:49:14.389Z,0.36
2023-02-07T04:50:15.557Z,0.47
2023-02-07T04:51:14.307Z,0.36
2023-02-07T04:52:14.346Z,0.40
2023-02-07T04:53:14.186Z,0.34
2023-02-07T04:54:15.180Z,0.39
2023-02-07T04:55:14.081Z,0.39
2023-02-07T04:56:14.188Z,0.37
2023-02-07T04:57:14.229Z,0.33
2023-02-07T04:58:14.005Z,0.44
2023-02-07T04:59:13.881Z,0.36
2023-02-07T05:00:13.828Z,0.39
2023-02-07T05:01:13.816Z,0.36
2023-02-07T05:02:13.807Z,0.30
2023-02-07T05:03:13.692Z,0.33
2023-02-07T05:04:14.032Z,0.39
2023-02-07T05:05:13.586Z,0.20
2023-02-07T05:06:13.529Z,0.37
2023-02-07T05:07:13.473Z,0.37
2023-02-07T05:08:14.463Z,0.29
2023-02-07T05:09:13.419Z,0.40
2023-02-07T05:10:13.461Z,0.37
2023-02-07T05:11:13.276Z,0.36
2023-02-07T05:12:13.226Z,0.39
2023-02-07T05:13:13.267Z,0.36
2023-02-07T05:14:13.131Z,0.31
2023-02-07T05:15:13.287Z,0.26
2023-02-07T05:16:13.136Z,0.37
2023-02-07T05:17:12.976Z,0.44
2023-02-07T05:18:12.916Z,0.30
2023-02-07T05:19:13.218Z,0.31
2023-02-07T05:20:12.830Z,0.36
2023-02-07T05:21:12.921Z,0.36
2023-02-07T05:22:12.713Z,0.30
2023-02-07T05:23:12.662Z,0.34
2023-02-07T05:24:12.814Z,0.36
2023-02-07T05:25:14.592Z,0.27
2023-02-07T05:26:12.510Z,0.31
2023-02-07T05:27:13.580Z,0.33
2023-02-07T05:28:12.427Z,0.31
2023-02-07T05:29:12.355Z,0.24
2023-02-07T05:30:12.375Z,0.18
2023-02-07T05:31:12.428Z,0.31
2023-02-07T05:32:12.393Z,0.27
2023-02-07T05:33:12.153Z,0.18
2023-02-07T05:34:13.226Z,0.08
2023-02-07T05:35:12.069Z,0.18
2023-02-07T05:36:12.117Z,0.19
2023-02-07T05:37:11.957Z,0.26
2023-02-07T05:38:12.024Z,0.20
2023-02-07T05:39:11.852Z,0.27
2023-02-07T05:40:11.807Z,0.27
2023-02-07T05:41:11.747Z,0.27
2023-02-07T05:42:12.873Z,0.15
2023-02-07T05:43:11.654Z,0.31
2023-02-07T05:44:11.664Z,0.29
2023-02-07T05:45:11.549Z,0.26
2023-02-07T05:46:11.541Z,0.18
2023-02-07T05:47:11.681Z,0.19
2023-02-07T05:48:11.529Z,0.20
2023-02-07T05:49:13.536Z,0.19
2023-02-07T05:50:11.289Z,0.23
2023-02-07T05:51:11.293Z,0.12
2023-02-07T05:52:11.190Z,0.15
2023-02-07T05:53:11.207Z,0.20
2023-02-07T05:54:11.095Z,0.27
2023-02-07T05:55:11.122Z,0.27
2023-02-07T05:56:10.979Z,0.12
2023-02-07T05:57:10.935Z,0.12
2023-02-07T05:58:10.882Z,0.06
2023-02-07T05:59:11.968Z,0.09
2023-02-07T06:03:47.054Z,0.05
2023-02-07T06:04:46.834Z,0.01
2023-02-07T06:05:47.852Z,-0.06
2023-02-07T06:06:46.722Z,-0.12
2023-02-07T06:07:47.786Z,0.00
2023-02-07T06:08:46.854Z,0.02
2023-02-07T06:09:46.566Z,0.06
2023-02-07T06:10:46.658Z,0.05
2023-02-07T06:11:47.744Z,0.00
2023-02-07T06:12:46.470Z,0.05
2023-02-07T06:13:46.351Z,0.00
2023-02-07T06:14:46.302Z,0.06
2023-02-07T06:15:46.284Z,-0.07
2023-02-07T06:16:46.393Z,-0.05
2023-02-07T06:17:46.152Z,-0.05
2023-02-07T06:18:46.204Z,-0.02
2023-02-07T06:19:46.058Z,-0.06
2023-02-07T06:20:46.112Z,0.01
2023-02-07T06:21:47.168Z,-0.07
2023-02-07T06:22:45.889Z,0.06
2023-02-07T06:23:46.037Z,0.05
2023-02-07T06:24:45.787Z,0.02
2023-02-07T06:25:46.668Z,0.06
2023-02-07T06:26:45.871Z,0.05
2023-02-07T06:27:45.804Z,0.11
2023-02-07T06:28:45.581Z,0.08
2023-02-07T06:29:45.676Z,0.08
2023-02-07T06:30:45.588Z,0.06
2023-02-07T06:31:45.479Z,0.11
2023-02-07T06:32:45.646Z,0.24
2023-02-07T06:33:45.394Z,0.15
2023-02-07T06:34:45.286Z,0.15
2023-02-07T06:35:46.435Z,0.19
2023-02-07T06:36:45.177Z,0.06
2023-02-07T06:37:45.133Z,0.09
2023-02-07T06:38:45.110Z,0.12
2023-02-07T06:39:45.130Z,0.15
2023-02-07T06:40:44.982Z,0.06
2023-02-07T06:41:44.942Z,0.08
2023-02-07T06:42:44.874Z,0.05
2023-02-07T06:43:44.822Z,0.11
2023-02-07T06:44:45.989Z,0.11
2023-02-07T06:45:44.722Z,0.13
2023-02-07T06:46:44.777Z,0.02
2023-02-07T06:47:44.622Z,0.05
2023-02-07T06:48:44.789Z,0.20
2023-02-07T06:49:44.523Z,0.20
2023-02-07T06:50:44.599Z,0.08
2023-02-07T06:51:44.425Z,0.09
2023-02-07T06:52:44.648Z,0.05
2023-02-07T06:53:44.314Z,0.01
2023-02-07T06:54:44.264Z,0.05
2023-02-07T06:55:44.211Z,0.01
2023-02-07T06:56:44.438Z,0.02
2023-02-07T06:57:44.112Z,0.11
2023-02-07T06:58:44.249Z,0.06
2023-02-07T06:59:44.010Z,0.23
2023-02-07T07:00:43.957Z,0.16
2023-02-07T07:01:44.089Z,0.12
2023-02-07T07:02:43.884Z,0.20
2023-02-07T07:03:43.881Z,0.12
2023-02-07T07:04:43.761Z,0.15
2023-02-07T07:05:44.096Z,0.11
2023-02-07T07:06:43.696Z,0.18
2023-02-07T07:07:43.718Z,0.24
2023-02-07T07:08:43.555Z,0.27
2023-02-07T07:09:43.614Z,0.23
2023-02-07T07:10:43.456Z,0.19
2023-02-07T07:11:44.455Z,0.18
2023-02-07T07:12:43.484Z,0.24
2023-02-07T07:13:43.451Z,0.29
2023-02-07T07:14:43.256Z,0.18
2023-02-07T07:15:43.488Z,0.15
2023-02-07T07:16:43.161Z,0.08
2023-02-07T07:17:43.098Z,0.20
2023-02-07T07:18:43.076Z,0.18
2023-02-07T07:19:44.101Z,0.13
2023-02-07T07:20:42.952Z,0.19
2023-02-07T07:21:42.991Z,0.13
2023-02-07T07:22:42.848Z,0.19
2023-02-07T07:23:42.805Z,0.18
2023-02-07T07:24:43.017Z,0.24
2023-02-07T07:25:42.690Z,0.23
2023-02-07T07:26:49.565Z,0.23
2023-02-07T07:27:42.589Z,0.31
2023-02-07T07:28:42.643Z,0.36
2023-02-07T07:29:42.486Z,0.39
2023-02-07T07:30:42.592Z,0.33
2023-02-07T07:31:42.649Z,0.26
2023-02-07T07:32:42.560Z,0.34
2023-02-07T07:33:42.413Z,0.30
2023-02-07T07:34:42.237Z,0.36
2023-02-07T07:35:42.441Z,0.39
2023-02-07T07:36:42.381Z,0.29
2023-02-07T07:37:42.096Z,0.42
2023-02-07T07:38:44.741Z,0.39
2023-02-07T07:39:42.003Z,0.33
2023-02-07T07:40:41.935Z,0.33
2023-02-07T07:41:41.891Z,0.45
2023-02-07T07:42:42.019Z,0.44
2023-02-07T07:43:41.780Z,0.48
2023-02-07T07:44:42.953Z,0.61
2023-02-07T07:45:41.677Z,0.56
2023-02-07T07:46:41.678Z,0.61
2023-02-07T07:47:41.638Z,0.59
2023-02-07T07:48:41.524Z,0.67
2023-02-07T07:49:51.007Z,0.61
2023-02-07T07:50:42.058Z,0.45
2023-02-07T07:51:41.382Z,0.61
2023-02-07T07:52:41.476Z,0.63
2023-02-07T07:53:41.277Z,0.59
2023-02-07T07:54:41.487Z,0.55
2023-02-07T07:55:41.333Z,0.58
2023-02-07T07:56:54.068Z,0.51
2023-02-07T07:57:49.105Z,0.45
2023-02-07T07:58:51.631Z,0.56
2023-02-07T07:59:49.670Z,0.59
2023-02-07T08:00:41.455Z,0.55
2023-02-07T08:01:41.053Z,0.51
2023-02-07T08:02:40.928Z,0.45
2023-02-07T08:03:40.788Z,0.52
2023-02-07T08:04:40.945Z,0.67
2023-02-07T08:05:40.665Z,0.66
2023-02-07T08:06:42.805Z,0.66
2023-02-07T08:07:40.809Z,0.64
2023-02-07T08:08:40.514Z,0.71
2023-02-07T08:09:40.454Z,0.71
2023-02-07T08:10:40.776Z,0.76
2023-02-07T08:11:40.360Z,0.82
2023-02-07T08:12:41.565Z,0.85
2023-02-07T08:13:40.250Z,0.88
2023-02-07T08:14:40.208Z,0.92
2023-02-07T08:15:40.410Z,0.91
2023-02-07T08:16:40.109Z,0.94
2023-02-07T08:17:40.221Z,0.91
2023-02-07T08:18:40.171Z,0.95
2023-02-07T08:19:39.954Z,0.91
2023-02-07T08:20:40.197Z,0.99
2023-02-07T08:21:43.915Z,0.99
2023-02-07T08:22:39.803Z,0.94
2023-02-07T08:23:39.954Z,1.03
2023-02-07T08:24:39.725Z,0.91
2023-02-07T08:25:39.653Z,1.10
2023-02-07T08:26:39.614Z,1.09
2023-02-07T08:27:39.678Z,1.12
2023-02-07T08:28:39.504Z,1.28
2023-02-07T08:29:39.909Z,1.20
2023-02-07T08:30:39.688Z,1.22
2023-02-07T08:31:39.358Z,1.24
2023-02-07T08:32:39.306Z,1.27
2023-02-07T08:33:40.337Z,1.31
2023-02-07T08:34:39.215Z,1.31
2023-02-07T08:35:39.339Z,1.43
2023-02-07T08:36:39.112Z,1.56
2023-02-07T08:37:39.056Z,1.48
2023-02-07T08:38:39.157Z,1.50
2023-02-07T08:39:38.959Z,1.49
2023-02-07T08:40:39.378Z,1.52
2023-02-07T08:41:39.024Z,1.49
2023-02-07T08:42:38.804Z,1.57
2023-02-07T08:43:38.752Z,1.63
2023-02-07T08:44:39.800Z,1.63
2023-02-07T08:45:38.749Z,1.61
2023-02-07T08:46:38.795Z,1.76
2023-02-07T08:47:38.595Z,1.76
2023-02-07T08:48:38.506Z,1.71
2023-02-07T08:49:38.718Z,1.76
2023-02-07T08:50:38.708Z,1.82
2023-02-07T08:51:38.537Z,1.71
2023-02-07T08:52:38.303Z,1.74
2023-02-07T08:53:38.535Z,1.67
2023-02-07T08:54:38.228Z,1.74
2023-02-07T08:55:38.349Z,1.76
2023-02-07T08:56:38.130Z,1.86
2023-02-07T08:57:38.261Z,1.71
2023-02-07T08:58:38.012Z,1.89
2023-02-07T08:59:37.958Z,1.88
2023-02-07T09:00:38.455Z,1.89
2023-02-07T09:01:38.097Z,2.01
2023-02-07T09:02:37.838Z,2.12
2023-02-07T09:03:37.997Z,2.08
2023-02-07T09:04:37.714Z,2.18
2023-02-07T09:05:37.665Z,2.26
2023-02-07T09:06:37.817Z,2.18
2023-02-07T09:07:37.564Z,2.32
2023-02-07T09:08:37.625Z,2.18
2023-02-07T09:09:37.466Z,2.22
2023-02-07T09:10:39.012Z,2.30
2023-02-07T09:11:37.407Z,2.46
2023-02-07T09:12:59.779Z,2.50
2023-02-07T09:13:37.275Z,2.57
2023-02-07T09:14:38.498Z,2.57
2023-02-07T09:15:37.168Z,2.43
2023-02-07T09:16:37.157Z,2.40
2023-02-07T09:17:37.082Z,2.46
2023-02-07T09:18:37.288Z,2.54
2023-02-07T09:19:36.968Z,2.57
2023-02-07T09:20:38.352Z,2.59
2023-02-07T09:21:36.875Z,2.58
2023-02-07T09:22:36.826Z,2.75
2023-02-07T09:23:36.919Z,2.90
2023-02-07T09:24:36.979Z,2.94
2023-02-07T09:25:37.962Z,2.91
2023-02-07T09:26:36.631Z,3.06
2023-02-07T09:27:36.582Z,2.95
2023-02-07T09:28:36.528Z,3.05
2023-02-07T09:29:36.757Z,3.11
2023-02-07T09:30:36.597Z,3.06
2023-02-07T09:31:37.684Z,3.08
2023-02-07T09:32:36.342Z,3.05
2023-02-07T09:33:36.290Z,3.11
2023-02-07T09:34:36.386Z,2.97
2023-02-07T09:35:36.194Z,3.13
2023-02-07T09:36:36.511Z,3.21
2023-02-07T09:37:48.731Z,3.29
2023-02-07T09:38:36.040Z,3.22
2023-02-07T09:39:35.993Z,3.31
2023-02-07T09:40:36.358Z,3.37
2023-02-07T09:41:35.891Z,3.48
2023-02-07T09:42:38.084Z,3.56
2023-02-07T09:43:38.536Z,3.81
2023-02-07T09:44:35.937Z,4.06
2023-02-07T09:45:35.704Z,4.58
2023-02-07T09:46:35.866Z,5.23
2023-02-07T09:47:35.610Z,5.92
2023-02-07T09:48:37.929Z,6.56
2023-02-07T09:49:35.513Z,7.28
2023-02-07T09:50:35.458Z,7.88
2023-02-07T09:51:35.714Z,8.38
2023-02-07T09:52:35.382Z,8.87
2023-02-07T09:53:35.508Z,9.33
2023-02-07T09:54:35.302Z,9.47
2023-02-07T09:55:35.255Z,9.69
2023-02-07T09:56:35.177Z,10.15
2023-02-07T09:57:35.326Z,10.57
2023-02-07T09:58:35.092Z,11.01
2023-02-07T09:59:35.337Z,11.40
2023-02-07T10:00:35.202Z,11.65
2023-02-07T10:01:35.087Z,11.97
2023-02-07T10:02:34.930Z,12.30
2023-02-07T10:03:35.791Z,12.80
2023-02-07T10:04:34.931Z,12.93
2023-02-07T10:05:35.099Z,13.11
2023-02-07T10:06:34.753Z,13.39
2023-02-07T10:07:34.767Z,13.64
2023-02-07T10:08:40.803Z,13.86
2023-02-07T10:09:34.665Z,13.93
2023-02-07T10:10:34.705Z,13.85
2023-02-07T10:11:34.582Z,13.94
2023-02-07T10:12:35.738Z,14.05
2023-02-07T10:13:34.484Z,14.16
2023-02-07T10:14:35.782Z,14.15
2023-02-07T10:15:34.399Z,14.04
2023-02-07T10:16:34.544Z,14.08
2023-02-07T10:17:34.281Z,14.04
2023-02-07T10:18:34.238Z,14.08
2023-02-07T10:19:34.200Z,14.30
2023-02-07T10:20:35.388Z,14.51
2023-02-07T10:21:34.107Z,14.71
2023-02-07T10:22:34.175Z,14.85
2023-02-07T10:23:34.074Z,15.08
2023-02-07T10:24:34.242Z,15.26
2023-02-07T10:25:34.223Z,15.18
2023-02-07T10:26:33.906Z,15.32
2023-02-07T10:27:35.029Z,15.59
2023-02-07T10:28:33.830Z,15.75
2023-02-07T10:29:39.397Z,15.90
2023-02-07T10:30:33.768Z,16.22
2023-02-07T10:31:33.883Z,16.46
2023-02-07T10:32:33.677Z,16.58
2023-02-07T10:33:33.639Z,16.72
2023-02-07T10:34:33.598Z,17.01
2023-02-07T10:35:33.590Z,17.17
2023-02-07T10:36:33.672Z,17.24
2023-02-07T10:37:33.467Z,17.35
2023-02-07T10:38:34.700Z,17.52
2023-02-07T10:39:33.395Z,17.27
2023-02-07T10:40:33.483Z,17.39
2023-02-07T10:41:33.548Z,17.35
2023-02-07T10:42:35.576Z,17.13
2023-02-07T10:43:33.236Z,17.23
2023-02-07T10:44:33.316Z,17.37
2023-02-07T10:45:33.190Z,17.59
2023-02-07T10:46:34.372Z,17.66
2023-02-07T10:47:33.084Z,17.56
2023-02-07T10:48:33.343Z,17.65
2023-02-07T10:49:33.005Z,17.60
2023-02-07T10:50:34.583Z,17.20
2023-02-07T10:51:32.927Z,17.27
2023-02-07T10:52:32.885Z,17.07
2023-02-07T10:53:33.034Z,16.80
2023-02-07T10:54:32.978Z,16.94
2023-02-07T10:55:32.770Z,17.19
2023-02-07T10:56:32.989Z,17.38
2023-02-07T10:57:32.701Z,17.54
2023-02-07T10:58:32.670Z,17.59
2023-02-07T10:59:32.615Z,17.73
2023-02-07T11:00:32.812Z,17.91
2023-02-07T11:01:32.616Z,17.78
2023-02-07T11:02:32.681Z,17.75
2023-02-07T11:03:32.462Z,17.82
2023-02-07T11:04:34.733Z,17.76
2023-02-07T11:05:32.651Z,17.84
2023-02-07T11:06:32.354Z,17.68
2023-02-07T11:07:42.583Z,17.65
2023-02-07T11:08:32.279Z,17.71
2023-02-07T11:09:32.242Z,17.44
2023-02-07T11:10:32.232Z,17.31
2023-02-07T11:11:32.397Z,17.34
2023-02-07T11:12:32.123Z,17.35
2023-02-07T11:13:32.196Z,17.69
2023-02-07T11:14:32.048Z,18.05
2023-02-07T11:15:32.011Z,18.43
2023-02-07T11:16:32.272Z,18.27
2023-02-07T11:17:33.072Z,18.27
2023-02-07T11:18:31.898Z,18.36
2023-02-07T11:19:32.033Z,18.26
2023-02-07T11:20:31.833Z,18.37
2023-02-07T11:21:31.788Z,18.61
2023-02-07T11:22:31.764Z,18.73
2023-02-07T11:23:31.861Z,18.82
2023-02-07T11:24:31.671Z,19.00
2023-02-07T11:25:31.894Z,19.19
2023-02-07T11:26:31.600Z,19.05
2023-02-07T11:27:31.557Z,18.97
2023-02-07T11:28:33.947Z,18.96
2023-02-07T11:29:31.498Z,18.83
2023-02-07T11:30:31.606Z,18.82
2023-02-07T11:31:31.433Z,18.98
2023-02-07T11:32:31.622Z,19.04
2023-02-07T11:33:31.335Z,19.23
2023-02-07T11:34:32.566Z,19.16
2023-02-07T11:35:31.261Z,19.17
2023-02-07T11:36:31.342Z,19.16
2023-02-07T11:37:31.190Z,18.98
2023-02-07T11:38:31.353Z,19.00
2023-02-07T11:39:31.114Z,19.22
2023-02-07T11:40:33.419Z,19.22
2023-02-07T11:41:31.050Z,19.49
2023-02-07T11:42:31.183Z,19.49
2023-02-07T11:43:30.971Z,19.53
2023-02-07T11:44:30.987Z,19.53
2023-02-07T11:45:30.890Z,19.59
2023-02-07T11:46:31.367Z,19.49
2023-02-07T11:47:30.853Z,19.35
2023-02-07T11:48:31.015Z,19.09
2023-02-07T11:49:30.746Z,19.16
2023-02-07T11:50:30.878Z,18.97
2023-02-07T11:51:30.666Z,18.73
2023-02-07T11:52:32.077Z,18.92
2023-02-07T11:53:30.595Z,19.15
2023-02-07T11:54:30.862Z,19.42
2023-02-07T11:55:30.524Z,19.56
2023-02-07T11:56:30.486Z,19.94
2023-02-07T11:57:30.471Z,20.22
2023-02-07T11:58:30.683Z,20.26
2023-02-07T11:59:30.374Z,20.21
2023-02-07T12:00:30.531Z,20.26
2023-02-07T12:01:30.309Z,19.99
2023-02-07T12:02:30.275Z,19.74
2023-02-07T12:03:30.320Z,19.71
2023-02-07T12:04:37.683Z,19.72
2023-02-07T12:05:31.453Z,19.85
2023-02-07T12:06:30.121Z,19.99
2023-02-07T12:07:30.240Z,20.03
2023-02-07T12:08:31.294Z,20.22
2023-02-07T12:09:30.014Z,20.19
2023-02-07T12:10:30.264Z,20.32
2023-02-07T12:11:29.952Z,20.50
2023-02-07T12:12:30.070Z,20.55
2023-02-07T12:13:31.155Z,20.52
2023-02-07T12:14:31.109Z,20.59
2023-02-07T12:15:29.824Z,20.46
2023-02-07T12:16:30.952Z,20.30
2023-02-07T12:17:29.969Z,20.18
2023-02-07T12:18:29.916Z,20.37
2023-02-07T12:19:29.652Z,20.44
2023-02-07T12:20:29.930Z,20.55
2023-02-07T12:21:29.579Z,20.55
2023-02-07T12:22:29.740Z,20.42
2023-02-07T12:23:41.909Z,20.39
2023-02-07T12:24:29.465Z,20.40
2023-02-07T12:25:30.054Z,20.59
2023-02-07T12:26:29.766Z,20.48
2023-02-07T12:27:29.372Z,20.36
2023-02-07T12:28:29.578Z,20.30
2023-02-07T12:29:29.637Z,20.34
2023-02-07T12:30:29.387Z,20.37
2023-02-07T12:31:29.343Z,20.33
2023-02-07T12:32:29.464Z,20.32
2023-02-07T12:33:29.142Z,20.46
2023-02-07T12:34:29.411Z,20.75
2023-02-07T12:35:29.069Z,20.89
2023-02-07T12:36:29.221Z,20.86
2023-02-07T12:37:29.027Z,20.82
2023-02-07T12:38:30.261Z,20.42
2023-02-07T12:39:28.924Z,20.37
2023-02-07T12:40:29.047Z,20.44
2023-02-07T12:41:28.848Z,20.55
2023-02-07T12:42:29.061Z,20.59
2023-02-07T12:43:29.120Z,20.36
2023-02-07T12:44:28.877Z,20.44
2023-02-07T12:45:28.771Z,20.82
2023-02-07T12:46:29.095Z,21.01
2023-02-07T12:47:28.642Z,21.17
2023-02-07T12:48:28.596Z,21.14
2023-02-07T12:49:28.597Z,20.88
2023-02-07T12:50:28.617Z,20.80
2023-02-07T12:51:28.490Z,20.95
2023-02-07T12:52:30.577Z,20.77
2023-02-07T12:53:28.416Z,20.56
2023-02-07T12:54:28.385Z,20.55
2023-02-07T12:55:28.345Z,20.58
2023-02-07T12:56:28.380Z,20.40
2023-02-07T12:57:28.278Z,20.34
2023-02-07T12:58:28.570Z,20.36
2023-02-07T12:59:28.239Z,20.29
2023-02-07T13:00:28.164Z,20.18
2023-02-07T13:01:28.300Z,20.24
2023-02-07T13:02:28.118Z,20.17
2023-02-07T13:03:29.218Z,20.08
2023-02-07T13:04:28.022Z,19.96
2023-02-07T13:05:28.181Z,20.08
2023-02-07T13:06:27.939Z,20.21
2023-02-07T13:07:28.936Z,20.21
2023-02-07T13:08:28.244Z,20.22
2023-02-07T13:09:29.991Z,20.29
2023-02-07T13:10:27.799Z,20.48
2023-02-07T13:11:27.766Z,20.40
2023-02-07T13:12:27.719Z,20.34
2023-02-07T13:13:27.748Z,20.49
2023-02-07T13:14:27.808Z,20.40